createdAt,value
2023-04-03T00:01:42.690Z,6.58
2023-04-03T00:04:12.247Z,10.28
2023-04-03T00:06:41.618Z,5.03
2023-04-03T00:09:10.906Z,5.97
2023-04-03T00:11:40.660Z,6.12
2023-04-03T00:14:09.958Z,6.80
2023-04-03T00:16:39.468Z,7.58
2023-04-03T00:19:08.852Z,7.08
2023-04-03T00:21:38.125Z,5.72
2023-04-03T00:24:07.902Z,8.03
2023-04-03T00:26:37.169Z,8.68
2023-04-03T00:29:06.426Z,8.50
2023-04-03T00:31:35.684Z,4.67
2023-04-03T00:34:04.987Z,7.67
2023-04-03T00:36:34.368Z,6.50
2023-04-03T00:39:04.032Z,6.83
2023-04-03T00:41:33.781Z,7.58
2023-04-03T00:44:03.070Z,7.20
2023-04-03T00:46:32.331Z,6.97
2023-04-03T00:49:01.751Z,5.87
2023-04-03T00:51:31.304Z,6.47
2023-04-03T00:54:05.297Z,6.53
2023-04-03T00:56:34.937Z,6.10
2023-04-03T00:59:16.051Z,6.95
2023-04-03T01:01:45.772Z,10.43
2023-04-03T01:04:40.463Z,7.45
2023-04-03T01:07:12.759Z,7.15
2023-04-03T01:09:42.780Z,7.05
2023-04-03T01:12:30.346Z,6.62
2023-04-03T01:15:02.106Z,5.17
2023-04-03T01:17:37.130Z,4.83
2023-04-03T01:20:40.946Z,7.65
2023-04-03T01:23:16.774Z,8.83
2023-04-03T01:25:49.097Z,5.78
2023-04-03T01:30:57.303Z,7.10
2023-04-03T01:33:27.246Z,7.08
2023-04-03T01:35:56.771Z,7.37
2023-04-03T01:38:26.839Z,8.93
2023-04-03T01:40:56.094Z,9.03
2023-04-03T01:43:26.185Z,5.42
2023-04-03T01:45:55.912Z,7.85
2023-04-03T01:48:25.974Z,5.80
2023-04-03T01:50:56.462Z,8.05
2023-04-03T01:53:25.936Z,6.67
2023-04-03T01:55:55.611Z,7.22
2023-04-03T01:58:26.048Z,10.20
2023-04-03T02:00:55.808Z,6.37
2023-04-03T02:03:25.295Z,7.28
2023-04-03T02:05:54.834Z,7.65
2023-04-03T02:08:24.485Z,8.18
2023-04-03T02:10:53.810Z,6.35
2023-04-03T02:13:23.436Z,10.63
2023-04-03T02:15:52.741Z,7.65
2023-04-03T02:18:22.344Z,8.63
2023-04-03T02:20:51.803Z,7.08
2023-04-03T02:23:21.192Z,8.35
2023-04-03T02:25:50.449Z,6.95
2023-04-03T02:28:19.889Z,6.58
2023-04-03T02:30:49.185Z,9.53
2023-04-03T02:33:18.850Z,9.33
2023-04-03T02:35:50.024Z,7.67
2023-04-03T02:38:19.444Z,7.40
2023-04-03T02:40:48.989Z,10.45
2023-04-03T02:43:18.639Z,8.15
2023-04-03T02:45:48.372Z,7.50
2023-04-03T02:48:18.272Z,8.75
2023-04-03T02:50:47.542Z,9.10
2023-04-03T02:53:16.953Z,7.80
2023-04-03T02:55:46.926Z,8.65
2023-04-03T02:58:16.258Z,6.58
2023-04-03T03:00:45.893Z,10.03
2023-04-03T03:03:15.926Z,7.78
2023-04-03T03:05:45.634Z,6.45
2023-04-03T03:08:14.889Z,9.80
2023-04-03T03:10:44.282Z,7.75
2023-04-03T03:13:13.736Z,8.85
2023-04-03T03:15:43.451Z,7.92
2023-04-03T03:18:13.179Z,7.40
2023-04-03T03:20:42.806Z,10.50
2023-04-03T03:23:12.336Z,9.45
2023-04-03T03:25:44.393Z,10.20
2023-04-03T03:28:13.889Z,9.90
2023-04-03T03:30:43.553Z,10.30
2023-04-03T03:33:12.892Z,9.55
2023-04-03T03:35:42.848Z,10.95
2023-04-03T03:38:12.728Z,8.78
2023-04-03T03:40:42.342Z,10.70
2023-04-03T03:43:11.925Z,12.10
2023-04-03T03:45:41.378Z,12.25
2023-04-03T03:48:10.685Z,9.80
2023-04-03T03:50:40.028Z,12.68
2023-04-03T03:53:09.426Z,8.23
2023-04-03T03:55:39.424Z,9.73
2023-04-03T03:58:09.071Z,11.95
2023-04-03T04:00:38.825Z,9.40
2023-04-03T04:03:08.471Z,9.60
2023-04-03T04:05:38.285Z,10.10
2023-04-03T04:08:07.890Z,10.10
2023-04-03T04:10:38.098Z,10.68
2023-04-03T04:13:08.096Z,10.63
2023-04-03T04:15:37.842Z,13.08
2023-04-03T04:18:08.088Z,14.50
2023-04-03T04:20:38.430Z,11.08
2023-04-03T04:23:08.163Z,10.68
2023-04-03T04:25:38.580Z,13.15
2023-04-03T04:28:08.843Z,9.18
2023-04-03T04:30:38.418Z,12.88
2023-04-03T04:33:08.468Z,12.58
2023-04-03T04:35:38.716Z,12.60
2023-04-03T04:38:09.737Z,13.53
2023-04-03T04:40:39.792Z,15.90
2023-04-03T04:43:09.486Z,15.25
2023-04-03T04:45:39.312Z,19.73
2023-04-03T04:48:09.362Z,16.60
2023-04-03T04:50:39.062Z,15.10
2023-04-03T04:53:09.465Z,11.40
2023-04-03T04:55:39.226Z,13.05
2023-04-03T04:58:09.135Z,14.00
2023-04-03T05:00:38.337Z,10.78
2023-04-03T05:03:08.940Z,10.32
2023-04-03T05:05:38.998Z,7.80
2023-04-03T05:08:09.983Z,12.10
2023-04-03T05:10:42.438Z,12.45
2023-04-03T05:13:12.493Z,12.73
2023-04-03T05:15:42.000Z,16.35
2023-04-03T05:18:11.638Z,21.02
2023-04-03T05:20:41.723Z,21.45
2023-04-03T05:23:12.659Z,20.80
2023-04-03T05:25:44.297Z,29.20
2023-04-03T05:28:15.051Z,23.98
2023-04-03T05:30:44.480Z,25.43
2023-04-03T05:33:15.480Z,21.00
2023-04-03T05:35:49.480Z,22.95
2023-04-03T05:38:21.477Z,17.15
2023-04-03T05:40:51.078Z,15.68
2023-04-03T05:43:20.532Z,17.87
2023-04-03T05:45:52.181Z,15.90
2023-04-03T05:48:22.088Z,13.55
2023-04-03T05:50:51.847Z,11.22
2023-04-03T05:53:28.986Z,9.10
2023-04-03T05:56:00.783Z,9.68
2023-04-03T05:58:31.482Z,12.43
2023-04-03T06:01:01.707Z,7.62
2023-04-03T06:03:31.585Z,7.05
2023-04-03T06:06:01.357Z,9.90
2023-04-03T06:08:30.872Z,8.55
2023-04-03T06:11:00.875Z,8.23
2023-04-03T06:13:30.532Z,10.35
2023-04-03T06:15:59.972Z,10.93
2023-04-03T06:18:29.568Z,12.47
2023-04-03T06:20:59.500Z,11.85
2023-04-03T06:23:29.274Z,11.20
2023-04-03T06:25:59.373Z,12.47
2023-04-03T06:28:28.945Z,7.50
2023-04-03T06:30:58.269Z,10.63
2023-04-03T06:33:27.951Z,11.65
2023-04-03T06:36:01.499Z,8.80
2023-04-03T06:38:31.143Z,11.40
2023-04-03T06:41:01.183Z,9.78
2023-04-03T06:43:34.335Z,8.33
2023-04-03T06:46:03.514Z,5.28
2023-04-03T06:48:33.238Z,8.00
2023-04-03T06:51:02.507Z,6.85
2023-04-03T06:53:32.485Z,9.58
2023-04-03T06:56:01.759Z,7.65
2023-04-03T06:58:31.797Z,6.12
2023-04-03T07:01:01.101Z,6.92
2023-04-03T07:03:30.498Z,4.95
2023-04-03T07:05:59.833Z,7.20
2023-04-03T07:08:29.911Z,7.92
2023-04-03T07:10:59.441Z,6.42
2023-04-03T07:13:29.753Z,5.70
2023-04-03T07:15:59.343Z,7.80
2023-04-03T07:18:28.807Z,6.17
2023-04-03T07:20:58.065Z,6.10
2023-04-03T07:23:27.779Z,5.40
2023-04-03T07:25:57.372Z,8.35
2023-04-03T07:28:27.035Z,6.00
2023-04-03T07:30:59.822Z,7.12
2023-04-03T07:33:29.799Z,5.17
2023-04-03T07:35:59.461Z,4.90
2023-04-03T07:38:28.924Z,8.50
2023-04-03T07:40:58.537Z,7.67
2023-04-03T07:43:27.844Z,5.10
2023-04-03T07:45:57.300Z,6.37
2023-04-03T07:48:27.533Z,6.97
2023-04-03T07:51:02.904Z,6.60
2023-04-03T07:53:32.407Z,5.03
2023-04-03T07:56:03.896Z,7.22
2023-04-03T07:58:33.266Z,7.00
2023-04-03T08:01:02.733Z,8.35
2023-04-03T08:03:32.384Z,5.03
2023-04-03T08:06:15.265Z,8.88
2023-04-03T08:08:40.494Z,7.60
2023-04-03T08:11:09.998Z,6.75
2023-04-03T08:13:39.247Z,6.10
2023-04-03T08:16:14.481Z,10.48
2023-04-03T08:18:43.886Z,5.62
2023-04-03T08:21:14.114Z,5.53
2023-04-03T08:23:43.826Z,7.12
2023-04-03T08:26:15.440Z,5.90
2023-04-03T08:28:44.761Z,7.70
2023-04-03T08:31:16.888Z,12.25
2023-04-03T08:33:46.649Z,9.60
2023-04-03T08:36:25.150Z,8.68
2023-04-03T08:38:55.627Z,4.30
2023-04-03T08:41:43.609Z,5.70
2023-04-03T08:44:41.919Z,7.58
2023-04-03T08:47:29.369Z,6.83
2023-04-03T08:50:04.104Z,8.50
2023-04-03T08:52:44.340Z,9.83
2023-04-03T08:55:26.417Z,6.15
2023-04-03T08:58:10.874Z,6.87
2023-04-03T09:00:52.148Z,8.05
2023-04-03T09:03:23.705Z,4.78
2023-04-03T09:06:07.472Z,10.82
2023-04-03T09:08:51.881Z,8.83
2023-04-03T09:11:39.243Z,8.48
2023-04-03T09:14:14.864Z,7.90
2023-04-03T09:17:01.715Z,5.28
2023-04-03T09:19:37.285Z,6.95
2023-04-03T09:22:24.815Z,5.42
2023-04-03T09:25:02.109Z,6.35
2023-04-03T09:27:31.745Z,5.90
2023-04-03T09:30:01.381Z,8.28
2023-04-03T09:32:32.765Z,7.50
2023-04-03T09:35:19.020Z,4.60
2023-04-03T09:37:42.506Z,2.87
2023-04-03T09:40:36.339Z,3.12
2023-04-03T09:43:24.145Z,3.58
2023-04-03T09:45:54.025Z,7.80
2023-04-03T09:48:26.525Z,5.72
2023-04-03T09:53:38.122Z,6.85
2023-04-03T09:56:21.226Z,4.80
2023-04-03T09:58:53.758Z,8.13
2023-04-03T10:04:16.674Z,4.28
2023-04-03T10:06:48.983Z,2.35
2023-04-03T10:09:34.899Z,4.62
2023-04-03T10:12:11.225Z,5.75
2023-04-03T10:14:58.472Z,6.03
2023-04-03T10:17:56.428Z,3.52
2023-04-03T10:20:41.627Z,3.52
2023-04-03T10:23:25.809Z,2.72
2023-04-03T10:26:14.712Z,3.17
2023-04-03T10:29:05.568Z,2.05
2023-04-03T10:31:41.612Z,2.20
2023-04-03T10:34:25.515Z,4.72
2023-04-03T10:37:29.703Z,7.10
2023-04-03T10:40:17.238Z,3.90
2023-04-03T10:43:08.593Z,4.03
2023-04-03T10:45:53.220Z,2.92
2023-04-03T10:48:44.903Z,3.77
2023-04-03T10:51:37.514Z,2.98
2023-04-03T11:19:46.459Z,3.42
2023-04-03T11:22:34.039Z,1.67
2023-04-03T11:25:16.494Z,5.72
2023-04-03T11:28:03.686Z,3.52
2023-04-03T11:30:51.893Z,3.45
2023-04-03T11:33:24.104Z,1.60
2023-04-03T11:35:56.674Z,4.03
2023-04-03T11:41:01.159Z,3.45
2023-04-03T11:43:32.342Z,4.72
2023-04-03T11:46:06.544Z,3.33
2023-04-03T11:48:44.617Z,5.33
2023-04-03T11:51:32.234Z,2.77
2023-04-03T11:54:13.523Z,7.42
2023-04-03T11:56:42.877Z,4.80
2023-04-03T11:59:20.816Z,5.75
2023-04-03T12:01:59.028Z,5.03
2023-04-03T12:04:31.619Z,3.08
2023-04-03T12:09:38.705Z,1.60
2023-04-03T12:12:34.703Z,5.97
2023-04-03T12:15:25.811Z,4.78
2023-04-03T12:17:55.555Z,8.50
2023-04-03T12:20:54.414Z,3.70
2023-04-03T12:23:30.202Z,1.90
2023-04-03T12:26:05.707Z,1.47
2023-04-03T12:28:41.948Z,1.90
2023-04-03T12:31:13.094Z,2.70
2023-04-03T12:34:10.455Z,1.40
2023-04-03T12:37:06.120Z,3.08
2023-04-03T12:40:04.978Z,1.10
2023-04-03T12:42:55.322Z,1.65
2023-04-03T12:45:26.831Z,3.02
2023-04-03T12:47:57.905Z,2.27
2023-04-03T12:50:34.205Z,2.10
2023-04-03T12:53:14.606Z,3.22
2023-04-03T12:55:44.170Z,2.33
2023-04-03T12:58:19.562Z,1.30
2023-04-03T13:00:49.049Z,3.08
2023-04-03T13:03:27.797Z,2.50
2023-04-03T13:06:01.308Z,1.40
2023-04-03T13:08:31.636Z,2.37
2023-04-03T13:11:10.152Z,2.42
2023-04-03T13:13:40.405Z,3.05
2023-04-03T13:16:15.473Z,2.58
2023-04-03T13:18:45.390Z,2.52
2023-04-03T13:21:20.974Z,2.35
2023-04-03T13:23:57.566Z,1.55
2023-04-03T13:26:27.219Z,2.40
2023-04-03T13:28:59.711Z,1.95
2023-04-03T13:34:11.916Z,3.77
2023-04-03T13:37:01.723Z,3.00
2023-04-03T13:39:34.550Z,2.33
2023-04-03T13:42:25.030Z,3.37
2023-04-03T13:45:14.606Z,3.12
2023-04-03T13:47:46.855Z,2.87
2023-04-03T13:50:23.632Z,3.22
2023-04-03T13:52:55.629Z,5.30
2023-04-03T13:55:28.513Z,3.33
2023-04-03T13:58:04.070Z,3.15
2023-04-03T14:00:42.771Z,3.42
2023-04-03T14:03:21.387Z,3.22
2023-04-03T14:05:51.517Z,4.08
2023-04-03T14:08:26.699Z,3.05
2023-04-03T14:10:52.932Z,5.90
2023-04-03T14:13:22.561Z,5.45
2023-04-03T14:15:52.409Z,9.90
2023-04-03T14:18:23.009Z,18.15
2023-04-03T14:20:52.341Z,2.35
2023-04-03T14:23:21.909Z,3.80
2023-04-03T14:25:51.380Z,3.98
2023-04-03T14:28:23.432Z,5.35
2023-04-03T14:30:53.761Z,5.45
2023-04-03T14:33:24.879Z,4.35
2023-04-03T14:35:56.393Z,1.90
2023-04-03T14:38:31.209Z,8.25
2023-04-03T14:41:13.560Z,4.80
2023-04-03T14:43:31.842Z,4.15
2023-04-03T14:46:01.421Z,3.92
2023-04-03T14:48:32.204Z,3.80
2023-04-03T14:51:05.813Z,4.78
2023-04-03T14:53:38.677Z,2.83
2023-04-03T14:56:06.330Z,4.53
2023-04-03T14:58:37.465Z,4.28
2023-04-03T15:01:07.475Z,2.58
2023-04-03T15:03:36.989Z,4.25
2023-04-03T15:06:06.715Z,3.10
2023-04-03T15:08:36.618Z,4.55
2023-04-03T15:11:06.105Z,3.35
2023-04-03T15:13:35.821Z,5.92
2023-04-03T15:16:06.045Z,3.33
2023-04-03T15:18:38.253Z,2.92
2023-04-03T15:21:08.040Z,3.55
2023-04-03T15:23:37.381Z,8.15
2023-04-03T15:26:07.448Z,3.35
2023-04-03T15:28:39.367Z,3.58
2023-04-03T15:31:10.012Z,2.75
2023-04-03T15:33:39.501Z,4.10
2023-04-03T15:36:29.249Z,4.08
2023-04-03T15:38:40.542Z,3.77
2023-04-03T15:41:09.977Z,3.33
2023-04-03T15:43:39.621Z,5.35
2023-04-03T15:46:09.405Z,3.85
2023-04-03T15:48:39.256Z,4.55
2023-04-03T15:51:08.947Z,3.22
2023-04-03T15:53:38.207Z,7.65
2023-04-03T15:56:09.190Z,5.12
2023-04-03T15:58:38.529Z,4.15
2023-04-03T16:01:08.214Z,6.58
2023-04-03T16:03:39.264Z,4.97
2023-04-03T16:06:08.649Z,9.38
2023-04-03T16:08:39.177Z,6.03
2023-04-03T16:11:09.158Z,4.40
2023-04-03T16:13:38.409Z,6.10
2023-04-03T16:16:08.544Z,6.97
2023-04-03T16:18:38.196Z,3.92
2023-04-03T16:21:09.067Z,6.92
2023-04-03T16:23:38.752Z,8.65
2023-04-03T16:26:08.091Z,4.28
2023-04-03T16:28:37.428Z,6.50
2023-04-03T16:31:08.086Z,4.00
2023-04-03T16:33:37.652Z,4.70
2023-04-03T16:36:07.520Z,5.25
2023-04-03T16:38:37.288Z,4.75
2023-04-03T16:41:06.946Z,3.62
2023-04-03T16:43:37.750Z,5.85
2023-04-03T16:46:07.051Z,5.53
2023-04-03T16:48:36.675Z,5.17
2023-04-03T16:51:06.177Z,6.83
2023-04-03T16:53:36.719Z,6.25
2023-04-03T16:56:06.238Z,4.40
2023-04-03T16:58:36.236Z,6.50
2023-04-03T17:01:13.395Z,8.70
2023-04-03T17:03:42.869Z,4.70
2023-04-03T17:06:17.433Z,6.90
2023-04-03T17:08:48.679Z,8.70
2023-04-03T17:11:21.349Z,9.08
2023-04-03T17:13:50.584Z,6.50
2023-04-03T17:16:20.111Z,5.87
2023-04-03T17:18:49.717Z,6.85
2023-04-03T17:21:19.317Z,4.47
2023-04-03T17:23:52.157Z,5.15
2023-04-03T17:26:22.268Z,6.00
2023-04-03T17:28:52.170Z,4.80
2023-04-03T17:31:21.749Z,5.37
2023-04-03T17:33:57.707Z,3.47
2023-04-03T17:36:31.402Z,4.58
2023-04-03T17:39:01.315Z,4.92
2023-04-03T17:41:31.124Z,8.35
2023-04-03T17:44:00.648Z,9.33
2023-04-03T17:46:31.891Z,6.37
2023-04-03T17:49:02.299Z,6.17
2023-04-03T17:51:33.861Z,8.03
2023-04-03T17:54:04.232Z,9.20
2023-04-03T17:56:33.737Z,9.55
2023-04-03T17:59:03.210Z,8.23
2023-04-03T18:01:36.156Z,7.87
2023-04-03T18:04:06.869Z,9.85
2023-04-03T18:06:44.739Z,13.35
2023-04-03T18:09:16.680Z,11.33
2023-04-03T18:11:47.743Z,11.22
2023-04-03T18:14:20.612Z,9.60
2023-04-03T18:16:50.742Z,9.53
2023-04-03T18:19:23.572Z,10.35
2023-04-03T18:45:25.112Z,7.58
2023-04-03T18:47:54.679Z,7.20
2023-04-03T18:50:24.452Z,7.95
2023-04-03T18:52:54.151Z,5.58
2023-04-03T18:55:23.552Z,6.40
2023-04-03T18:57:53.161Z,7.15
2023-04-03T19:00:22.460Z,8.65
2023-04-03T19:02:52.119Z,11.40
2023-04-03T19:05:22.236Z,9.63
2023-04-03T19:07:52.065Z,7.35
2023-04-03T19:10:22.142Z,8.28
2023-04-03T19:12:52.425Z,6.55
2023-04-03T19:15:24.702Z,6.08
2023-04-03T19:17:54.311Z,6.60
2023-04-03T19:20:23.884Z,5.92
2023-04-03T19:22:54.806Z,5.53
2023-04-03T19:25:24.430Z,7.72
2023-04-03T19:27:53.829Z,6.50
2023-04-03T19:30:24.724Z,4.85
2023-04-03T19:32:54.197Z,6.55
2023-04-03T19:35:23.681Z,7.30
2023-04-03T19:37:53.545Z,7.53
2023-04-03T19:40:23.240Z,5.50
2023-04-03T19:42:53.174Z,5.83
2023-04-03T19:45:23.019Z,6.00
2023-04-03T19:47:52.781Z,6.50
2023-04-03T19:50:22.463Z,7.55
2023-04-03T19:52:51.821Z,6.87
2023-04-03T19:55:21.247Z,6.92
2023-04-03T19:57:50.779Z,6.30
2023-04-03T20:00:21.049Z,4.50
2023-04-03T20:02:50.895Z,6.53
2023-04-03T20:05:20.264Z,6.92
2023-04-03T20:07:49.955Z,6.00
2023-04-03T20:10:19.848Z,7.55
2023-04-03T20:12:50.375Z,10.82
2023-04-03T20:15:19.971Z,19.07
2023-04-03T20:17:49.810Z,16.50
2023-04-03T20:20:19.701Z,12.20
2023-04-03T20:22:49.053Z,9.58
2023-04-03T20:25:33.209Z,9.65
2023-04-03T20:27:49.601Z,6.55
2023-04-03T20:30:18.953Z,11.53
2023-04-03T20:32:48.446Z,14.10
2023-04-03T20:35:19.680Z,12.03
2023-04-03T20:37:49.025Z,11.95
2023-04-03T20:40:18.772Z,9.58
2023-04-03T20:42:48.442Z,9.20
2023-04-03T20:45:18.071Z,6.72
2023-04-03T20:47:47.877Z,7.03
2023-04-03T20:50:17.710Z,6.00
2023-04-03T20:52:47.539Z,6.50
2023-04-03T20:55:18.575Z,5.40
2023-04-03T20:57:54.296Z,7.80
2023-04-03T21:00:19.706Z,8.30
2023-04-03T21:02:49.024Z,7.97
2023-04-03T21:05:20.629Z,6.83
2023-04-03T21:08:26.426Z,6.62
2023-04-03T21:11:34.075Z,8.30
2023-04-03T21:14:39.666Z,11.60
2023-04-03T21:17:07.997Z,6.75
2023-04-03T21:19:39.053Z,6.87
2023-04-03T21:22:08.513Z,8.10
2023-04-03T21:24:38.699Z,9.70
2023-04-03T21:27:08.379Z,7.08
2023-04-03T21:29:37.667Z,8.20
2023-04-03T21:32:07.860Z,9.33
2023-04-03T21:34:37.098Z,8.53
2023-04-03T21:37:09.732Z,6.03
2023-04-03T21:39:39.007Z,8.28
2023-04-03T21:42:08.760Z,8.88
2023-04-03T21:44:38.922Z,11.48
2023-04-03T21:47:08.393Z,8.53
2023-04-03T21:49:37.716Z,9.18
2023-04-03T21:52:07.408Z,9.08
2023-04-03T21:54:36.915Z,7.37
2023-04-03T21:57:06.179Z,7.90
2023-04-03T21:59:36.652Z,8.58
2023-04-03T22:02:06.258Z,6.30
2023-04-03T22:04:35.637Z,8.70
2023-04-03T22:07:05.173Z,10.80
2023-04-03T22:09:34.453Z,7.70
2023-04-03T22:12:04.884Z,10.03
2023-04-03T22:14:35.316Z,9.85
2023-04-03T22:17:05.815Z,7.60
2023-04-03T22:19:35.634Z,7.87
2023-04-03T22:22:04.885Z,8.00
2023-04-03T22:24:34.293Z,9.55
2023-04-03T22:27:03.551Z,7.12
2023-04-03T22:29:33.194Z,7.65
2023-04-03T22:32:02.584Z,10.68
2023-04-03T22:34:32.481Z,7.17
2023-04-03T22:37:01.975Z,7.87
2023-04-03T22:39:31.719Z,7.28
2023-04-03T22:42:01.685Z,8.43
2023-04-03T22:44:36.274Z,5.75
2023-04-03T22:47:03.100Z,7.53
2023-04-03T22:49:33.284Z,6.92
2023-04-03T22:52:02.605Z,6.35
2023-04-03T22:54:31.861Z,7.40
2023-04-03T22:57:01.139Z,7.10
2023-04-03T22:59:30.416Z,7.20
2023-04-03T23:01:59.681Z,8.38
2023-04-03T23:04:29.693Z,9.28
2023-04-03T23:07:00.252Z,7.85
2023-04-03T23:09:29.690Z,9.43
2023-04-03T23:11:59.536Z,8.85
2023-04-03T23:14:28.975Z,7.20
2023-04-03T23:16:59.909Z,7.85
2023-04-03T23:19:29.245Z,9.75
2023-04-03T23:21:58.783Z,8.10
2023-04-03T23:24:28.591Z,6.47
2023-04-03T23:26:58.017Z,8.18
2023-04-03T23:29:28.053Z,9.25
2023-04-03T23:31:57.348Z,6.50
2023-04-03T23:34:26.919Z,7.53
2023-04-03T23:36:56.217Z,6.67
2023-04-03T23:39:25.761Z,6.67
2023-04-03T23:41:55.428Z,10.32
2023-04-03T23:44:24.671Z,9.98
2023-04-03T23:46:55.702Z,6.90
2023-04-03T23:49:24.965Z,10.35
2023-04-03T23:51:54.609Z,9.43
2023-04-03T23:54:24.428Z,10.00
2023-04-03T23:56:53.830Z,8.78
2023-04-03T23:59:23.346Z,9.20
